createdAt,value
2022-10-31T00:00:41.649Z,1006.80
2022-10-31T00:01:41.586Z,1006.77
2022-10-31T00:02:41.615Z,1006.76
2022-10-31T00:03:41.665Z,1006.77
2022-10-31T00:04:41.540Z,1006.78
2022-10-31T00:05:41.524Z,1006.84
2022-10-31T00:06:41.520Z,1006.83
2022-10-31T00:07:41.497Z,1006.84
2022-10-31T00:08:41.489Z,1006.81
2022-10-31T00:09:41.473Z,1006.85
2022-10-31T00:10:41.530Z,1006.83
2022-10-31T00:11:41.452Z,1006.82
2022-10-31T00:12:41.434Z,1006.85
2022-10-31T00:13:41.414Z,1006.87
2022-10-31T00:14:41.420Z,1006.84
2022-10-31T00:15:41.383Z,1006.86
2022-10-31T00:16:41.401Z,1006.84
2022-10-31T00:17:41.360Z,1006.87
2022-10-31T00:18:41.356Z,1006.88
2022-10-31T00:19:41.328Z,1006.88
2022-10-31T00:20:41.353Z,1006.84
2022-10-31T00:21:41.313Z,1006.84
2022-10-31T00:22:41.287Z,1006.85
2022-10-31T00:23:41.279Z,1006.88
2022-10-31T00:24:41.260Z,1006.91
2022-10-31T00:25:41.247Z,1006.94
2022-10-31T00:26:41.260Z,1006.97
2022-10-31T00:27:41.218Z,1006.94
2022-10-31T00:28:41.208Z,1006.93
2022-10-31T00:29:41.192Z,1006.96
2022-10-31T00:30:41.178Z,1006.94
2022-10-31T00:31:41.163Z,1006.94
2022-10-31T00:32:41.186Z,1006.93
2022-10-31T00:33:41.132Z,1006.95
2022-10-31T00:34:41.124Z,1006.96
2022-10-31T00:35:41.105Z,1006.91
2022-10-31T00:36:41.095Z,1006.99
2022-10-31T00:37:41.073Z,1006.99
2022-10-31T00:38:41.092Z,1006.96
2022-10-31T00:39:41.046Z,1006.98
2022-10-31T00:40:41.042Z,1007.01
2022-10-31T00:41:41.054Z,1007.01
2022-10-31T00:42:41.007Z,1006.97
2022-10-31T00:43:41.022Z,1006.98
2022-10-31T00:44:40.977Z,1007.02
2022-10-31T00:45:40.963Z,1007.03
2022-10-31T00:46:40.982Z,1007.05
2022-10-31T00:47:40.936Z,1007.10
2022-10-31T00:48:40.932Z,1007.08
2022-10-31T00:49:40.907Z,1007.06
2022-10-31T00:50:40.902Z,1007.10
2022-10-31T00:51:40.914Z,1007.09
2022-10-31T00:52:40.871Z,1007.13
2022-10-31T00:53:40.883Z,1007.14
2022-10-31T00:54:40.838Z,1007.09
2022-10-31T00:55:40.819Z,1007.09
2022-10-31T00:56:40.827Z,1007.14
2022-10-31T00:57:40.793Z,1007.13
2022-10-31T00:58:40.798Z,1007.16
2022-10-31T00:59:40.766Z,1007.15
2022-10-31T01:00:40.749Z,1007.16
2022-10-31T01:01:40.879Z,1007.15
2022-10-31T01:02:40.844Z,1007.11
2022-10-31T01:03:40.705Z,1007.19
2022-10-31T01:04:40.698Z,1007.20
2022-10-31T01:05:40.690Z,1007.17
2022-10-31T01:06:40.665Z,1007.18
2022-10-31T01:07:40.649Z,1007.15
2022-10-31T01:08:40.665Z,1007.20
2022-10-31T01:09:40.620Z,1007.24
2022-10-31T01:10:40.607Z,1007.21
2022-10-31T01:11:40.611Z,1007.17
2022-10-31T01:12:40.581Z,1007.21
2022-10-31T01:13:40.589Z,1007.21
2022-10-31T01:14:40.565Z,1007.28
2022-10-31T01:15:40.534Z,1007.25
2022-10-31T01:16:40.531Z,1007.24
2022-10-31T01:17:40.570Z,1007.25
2022-10-31T01:18:40.511Z,1007.25
2022-10-31T01:19:40.478Z,1007.25
2022-10-31T01:20:40.467Z,1007.25
2022-10-31T01:21:40.457Z,1007.31
2022-10-31T01:22:40.451Z,1007.32
2022-10-31T01:23:40.453Z,1007.31
2022-10-31T01:24:40.409Z,1007.32
2022-10-31T01:25:40.395Z,1007.32
2022-10-31T01:26:40.389Z,1007.27
2022-10-31T01:27:40.367Z,1007.26
2022-10-31T01:28:40.366Z,1007.26
2022-10-31T01:29:40.336Z,1007.26
2022-10-31T01:30:40.327Z,1007.31
2022-10-31T01:31:40.319Z,1007.27
2022-10-31T01:32:40.295Z,1007.23
2022-10-31T01:33:40.275Z,1007.24
2022-10-31T01:34:40.268Z,1007.21
2022-10-31T01:35:40.272Z,1007.27
2022-10-31T01:36:40.247Z,1007.22
2022-10-31T01:37:40.226Z,1007.29
2022-10-31T01:38:40.211Z,1007.36
2022-10-31T01:39:40.198Z,1007.33
2022-10-31T01:40:40.189Z,1007.30
2022-10-31T01:41:40.201Z,1007.32
2022-10-31T01:42:40.149Z,1007.37
2022-10-31T01:43:40.156Z,1007.34
2022-10-31T01:44:40.120Z,1007.31
2022-10-31T01:45:40.108Z,1007.35
2022-10-31T01:46:40.093Z,1007.31
2022-10-31T01:47:40.118Z,1007.30
2022-10-31T01:48:40.386Z,1007.28
2022-10-31T01:49:40.052Z,1007.24
2022-10-31T01:50:40.033Z,1007.26
2022-10-31T01:51:40.022Z,1007.26
2022-10-31T01:52:40.003Z,1007.23
2022-10-31T01:53:39.993Z,1007.22
2022-10-31T01:54:40.004Z,1007.23
2022-10-31T01:55:39.965Z,1007.21
2022-10-31T01:56:39.969Z,1007.21
2022-10-31T01:57:39.965Z,1007.23
2022-10-31T01:58:39.930Z,1007.19
2022-10-31T01:59:39.906Z,1007.23
2022-10-31T02:00:39.886Z,1007.27
2022-10-31T02:01:40.010Z,1007.21
2022-10-31T02:02:39.981Z,1007.23
2022-10-31T02:03:39.850Z,1007.25
2022-10-31T02:04:39.856Z,1007.26
2022-10-31T02:05:39.814Z,1007.21
2022-10-31T02:06:39.825Z,1007.22
2022-10-31T02:07:39.806Z,1007.22
2022-10-31T02:08:39.767Z,1007.20
2022-10-31T02:09:39.757Z,1007.22
2022-10-31T02:10:39.742Z,1007.15
2022-10-31T02:11:39.772Z,1007.19
2022-10-31T02:12:39.727Z,1007.23
2022-10-31T02:13:39.700Z,1007.22
2022-10-31T02:14:39.683Z,1007.25
2022-10-31T02:15:39.687Z,1007.25
2022-10-31T02:16:39.650Z,1007.28
2022-10-31T02:17:39.687Z,1007.26
2022-10-31T02:18:39.632Z,1007.26
2022-10-31T02:19:39.611Z,1007.22
2022-10-31T02:20:39.595Z,1007.22
2022-10-31T02:21:39.580Z,1007.23
2022-10-31T02:22:39.565Z,1007.21
2022-10-31T02:23:39.591Z,1007.25
2022-10-31T02:24:39.548Z,1007.31
2022-10-31T02:25:39.520Z,1007.35
2022-10-31T02:26:39.526Z,1007.30
2022-10-31T02:27:39.496Z,1007.31
2022-10-31T02:28:39.504Z,1007.32
2022-10-31T02:29:39.464Z,1007.33
2022-10-31T02:30:39.483Z,1007.28
2022-10-31T02:31:39.440Z,1007.29
2022-10-31T02:32:39.415Z,1007.32
2022-10-31T02:33:39.425Z,1007.35
2022-10-31T02:34:39.384Z,1007.36
2022-10-31T02:35:39.379Z,1007.35
2022-10-31T02:36:39.385Z,1007.36
2022-10-31T02:37:39.349Z,1007.41
2022-10-31T02:38:39.332Z,1007.36
2022-10-31T02:39:39.318Z,1007.43
2022-10-31T02:40:39.300Z,1007.45
2022-10-31T02:41:39.366Z,1007.47
2022-10-31T02:42:39.270Z,1007.46
2022-10-31T02:43:39.265Z,1007.44
2022-10-31T02:44:39.242Z,1007.48
2022-10-31T02:45:39.224Z,1007.43
2022-10-31T02:46:39.211Z,1007.40
2022-10-31T02:47:39.261Z,1007.39
2022-10-31T02:48:39.182Z,1007.40
2022-10-31T02:49:39.176Z,1007.35
2022-10-31T02:50:39.150Z,1007.31
2022-10-31T02:51:39.145Z,1007.32
2022-10-31T02:52:39.121Z,1007.32
2022-10-31T02:53:39.122Z,1007.30
2022-10-31T02:54:39.091Z,1007.31
2022-10-31T02:55:39.082Z,1007.26
2022-10-31T02:56:39.065Z,1007.31
2022-10-31T02:57:39.069Z,1007.35
2022-10-31T02:58:39.061Z,1007.33
2022-10-31T02:59:39.021Z,1007.38
2022-10-31T03:00:39.003Z,1007.37
2022-10-31T03:01:39.077Z,1007.40
2022-10-31T03:02:39.066Z,1007.42
2022-10-31T03:03:38.996Z,1007.43
2022-10-31T03:04:38.945Z,1007.49
2022-10-31T03:05:38.942Z,1007.49
2022-10-31T03:06:38.911Z,1007.50
2022-10-31T03:07:38.916Z,1007.56
2022-10-31T03:08:38.933Z,1007.53
2022-10-31T03:09:38.870Z,1007.57
2022-10-31T03:10:38.858Z,1007.55
2022-10-31T03:11:38.848Z,1007.54
2022-10-31T03:12:40.238Z,1007.54
2022-10-31T03:13:38.817Z,1007.58
2022-10-31T03:14:38.831Z,1007.53
2022-10-31T03:15:38.789Z,1007.52
2022-10-31T03:16:38.765Z,1007.55
2022-10-31T03:17:38.753Z,1007.54
2022-10-31T03:18:38.736Z,1007.60
2022-10-31T03:19:38.722Z,1007.64
2022-10-31T03:20:38.733Z,1007.64
2022-10-31T03:21:38.693Z,1007.65
2022-10-31T03:22:38.674Z,1007.64
2022-10-31T03:23:38.663Z,1007.66
2022-10-31T03:24:38.654Z,1007.64
2022-10-31T03:25:38.660Z,1007.67
2022-10-31T03:26:38.643Z,1007.69
2022-10-31T03:27:38.625Z,1007.65
2022-10-31T03:28:38.586Z,1007.66
2022-10-31T03:29:38.580Z,1007.63
2022-10-31T03:30:38.616Z,1007.66
2022-10-31T03:31:38.566Z,1007.69
2022-10-31T03:32:38.525Z,1007.71
2022-10-31T03:33:38.518Z,1007.70
2022-10-31T03:34:38.495Z,1007.68
2022-10-31T03:35:38.492Z,1007.65
2022-10-31T03:36:38.500Z,1007.63
2022-10-31T03:37:38.457Z,1007.61
2022-10-31T03:38:38.433Z,1007.68
2022-10-31T03:39:38.421Z,1007.63
2022-10-31T03:40:38.413Z,1007.64
2022-10-31T03:41:38.442Z,1007.62
2022-10-31T03:42:38.380Z,1007.65
2022-10-31T03:43:38.392Z,1007.63
2022-10-31T03:44:38.352Z,1007.63
2022-10-31T03:45:38.345Z,1007.63
2022-10-31T03:46:38.314Z,1007.65
2022-10-31T03:47:38.359Z,1007.63
2022-10-31T03:48:38.314Z,1007.60
2022-10-31T03:49:38.273Z,1007.61
2022-10-31T03:50:38.261Z,1007.62
2022-10-31T03:51:38.248Z,1007.58
2022-10-31T03:52:38.237Z,1007.58
2022-10-31T03:53:38.216Z,1007.57
2022-10-31T03:54:38.195Z,1007.57
2022-10-31T03:55:38.184Z,1007.52
2022-10-31T03:56:38.167Z,1007.55
2022-10-31T03:57:38.156Z,1007.58
2022-10-31T03:58:38.185Z,1007.56
2022-10-31T03:59:38.124Z,1007.59
2022-10-31T04:00:38.104Z,1007.54
2022-10-31T04:01:38.236Z,1007.57
2022-10-31T04:02:38.267Z,1007.54
2022-10-31T04:03:38.087Z,1007.52
2022-10-31T04:04:38.097Z,1007.52
2022-10-31T04:05:38.035Z,1007.51
2022-10-31T04:06:38.014Z,1007.54
2022-10-31T04:07:38.004Z,1007.54
2022-10-31T04:08:37.989Z,1007.52
2022-10-31T04:09:37.975Z,1007.53
2022-10-31T04:10:37.991Z,1007.54
2022-10-31T04:11:37.949Z,1007.54
2022-10-31T04:12:37.928Z,1007.55
2022-10-31T04:13:37.938Z,1007.61
2022-10-31T04:14:37.897Z,1007.62
2022-10-31T04:15:37.946Z,1007.67
2022-10-31T04:16:37.867Z,1007.69
2022-10-31T04:17:37.870Z,1007.69
2022-10-31T04:18:37.837Z,1007.68
2022-10-31T04:19:37.823Z,1007.70
2022-10-31T04:20:37.815Z,1007.69
2022-10-31T04:21:37.858Z,1007.70
2022-10-31T04:22:37.775Z,1007.74
2022-10-31T04:23:37.771Z,1007.70
2022-10-31T04:24:37.748Z,1007.70
2022-10-31T04:25:37.733Z,1007.70
2022-10-31T04:26:37.726Z,1007.65
2022-10-31T04:27:37.731Z,1007.66
2022-10-31T04:28:37.711Z,1007.64
2022-10-31T04:29:37.674Z,1007.64
2022-10-31T04:30:37.665Z,1007.61
2022-10-31T04:31:37.646Z,1007.63
2022-10-31T04:32:37.626Z,1007.64
2022-10-31T04:33:37.662Z,1007.67
2022-10-31T04:34:37.593Z,1007.67
2022-10-31T04:35:37.581Z,1007.61
2022-10-31T04:36:37.566Z,1007.62
2022-10-31T04:37:37.564Z,1007.62
2022-10-31T04:38:37.536Z,1007.58
2022-10-31T04:39:37.561Z,1007.51
2022-10-31T04:40:37.506Z,1007.49
2022-10-31T04:41:37.526Z,1007.60
2022-10-31T04:42:37.472Z,1007.56
2022-10-31T04:43:37.459Z,1007.64
2022-10-31T04:44:37.456Z,1007.69
2022-10-31T04:45:37.460Z,1007.68
2022-10-31T04:46:37.414Z,1007.66
2022-10-31T04:47:37.457Z,1007.69
2022-10-31T04:48:37.396Z,1007.66
2022-10-31T04:49:37.371Z,1007.63
2022-10-31T04:50:37.352Z,1007.57
2022-10-31T04:51:37.337Z,1007.55
2022-10-31T04:52:37.323Z,1007.52
2022-10-31T04:53:37.311Z,1007.56
2022-10-31T04:54:37.288Z,1007.59
2022-10-31T04:55:37.279Z,1007.60
2022-10-31T04:56:37.265Z,1007.64
2022-10-31T04:57:37.248Z,1007.65
2022-10-31T04:58:37.239Z,1007.62
2022-10-31T04:59:37.222Z,1007.66
2022-10-31T05:00:37.213Z,1007.66
2022-10-31T05:01:37.352Z,1007.67
2022-10-31T05:02:40.684Z,1007.66
2022-10-31T05:03:37.158Z,1007.68
2022-10-31T05:04:37.187Z,1007.70
2022-10-31T05:05:37.128Z,1007.68
2022-10-31T05:06:37.108Z,1007.68
2022-10-31T05:07:37.097Z,1007.70
2022-10-31T05:08:37.088Z,1007.69
2022-10-31T05:09:37.064Z,1007.64
2022-10-31T05:10:37.056Z,1007.57
2022-10-31T05:11:37.041Z,1007.58
2022-10-31T05:12:37.023Z,1007.55
2022-10-31T05:13:37.015Z,1007.53
2022-10-31T05:14:36.992Z,1007.51
2022-10-31T05:15:36.991Z,1007.52
2022-10-31T05:16:36.959Z,1007.48
2022-10-31T05:17:36.942Z,1007.50
2022-10-31T05:18:36.929Z,1007.47
2022-10-31T05:19:36.914Z,1007.52
2022-10-31T05:20:36.936Z,1007.51
2022-10-31T05:21:36.886Z,1007.54
2022-10-31T05:22:36.868Z,1007.53
2022-10-31T05:23:36.863Z,1007.56
2022-10-31T05:24:36.844Z,1007.56
2022-10-31T05:25:36.824Z,1007.62
2022-10-31T05:26:36.846Z,1007.53
2022-10-31T05:27:36.794Z,1007.52
2022-10-31T05:28:36.775Z,1007.49
2022-10-31T05:29:36.763Z,1007.46
2022-10-31T05:30:36.768Z,1007.47
2022-10-31T05:31:36.736Z,1007.46
2022-10-31T05:32:36.741Z,1007.41
2022-10-31T05:33:36.805Z,1007.43
2022-10-31T05:34:36.684Z,1007.44
2022-10-31T05:35:36.670Z,1007.45
2022-10-31T05:36:36.682Z,1007.45
2022-10-31T05:37:36.643Z,1007.41
2022-10-31T05:38:36.664Z,1007.45
2022-10-31T05:39:36.613Z,1007.46
2022-10-31T05:40:36.603Z,1007.43
2022-10-31T05:41:36.607Z,1007.35
2022-10-31T05:42:36.571Z,1007.40
2022-10-31T05:43:36.548Z,1007.40
2022-10-31T05:44:36.533Z,1007.43
2022-10-31T05:45:36.519Z,1007.41
2022-10-31T05:46:36.548Z,1007.40
2022-10-31T05:47:36.499Z,1007.39
2022-10-31T05:48:36.471Z,1007.43
2022-10-31T05:49:36.458Z,1007.40
2022-10-31T05:50:36.447Z,1007.41
2022-10-31T05:51:36.454Z,1007.43
2022-10-31T05:52:36.414Z,1007.45
2022-10-31T05:53:36.421Z,1007.46
2022-10-31T05:54:36.389Z,1007.45
2022-10-31T05:55:36.372Z,1007.48
2022-10-31T05:56:36.352Z,1007.48
2022-10-31T05:57:36.365Z,1007.44
2022-10-31T05:58:36.323Z,1007.40
2022-10-31T05:59:36.319Z,1007.45
2022-10-31T06:00:36.295Z,1007.42
2022-10-31T06:01:36.394Z,1007.43
2022-10-31T06:02:36.294Z,1007.46
2022-10-31T06:03:36.248Z,1007.44
2022-10-31T06:04:36.289Z,1007.47
2022-10-31T06:05:36.212Z,1007.44
2022-10-31T06:06:36.198Z,1007.48
2022-10-31T06:07:36.227Z,1007.47
2022-10-31T06:08:36.174Z,1007.49
2022-10-31T06:09:36.155Z,1007.45
2022-10-31T06:10:36.141Z,1007.46
2022-10-31T06:11:36.130Z,1007.46
2022-10-31T06:12:36.112Z,1007.49
2022-10-31T06:13:36.146Z,1007.45
2022-10-31T06:14:36.082Z,1007.45
2022-10-31T06:15:36.068Z,1007.44
2022-10-31T06:16:36.052Z,1007.47
2022-10-31T06:17:36.035Z,1007.46
2022-10-31T06:18:36.024Z,1007.50
2022-10-31T06:19:36.034Z,1007.50
2022-10-31T06:20:35.996Z,1007.51
2022-10-31T06:21:35.972Z,1007.53
2022-10-31T06:22:35.957Z,1007.50
2022-10-31T06:23:35.941Z,1007.53
2022-10-31T06:24:35.979Z,1007.51
2022-10-31T06:25:35.913Z,1007.52
2022-10-31T06:26:35.899Z,1007.58
2022-10-31T06:27:35.882Z,1007.55
2022-10-31T06:28:35.869Z,1007.56
2022-10-31T06:29:35.854Z,1007.55
2022-10-31T06:30:35.882Z,1007.61
2022-10-31T06:31:35.828Z,1007.61
2022-10-31T06:32:35.809Z,1007.60
2022-10-31T06:33:35.790Z,1007.62
2022-10-31T06:34:35.788Z,1007.59
2022-10-31T06:35:35.763Z,1007.58
2022-10-31T06:36:35.761Z,1007.58
2022-10-31T06:37:35.731Z,1007.60
2022-10-31T06:38:35.715Z,1007.63
2022-10-31T06:39:35.699Z,1007.63
2022-10-31T06:40:35.686Z,1007.67
2022-10-31T06:41:35.713Z,1007.67
2022-10-31T06:42:35.657Z,1007.68
2022-10-31T06:43:35.650Z,1007.69
2022-10-31T06:44:35.653Z,1007.71
2022-10-31T06:45:35.609Z,1007.71
2022-10-31T06:46:35.605Z,1007.75
2022-10-31T06:47:50.749Z,1007.75
2022-10-31T06:48:35.572Z,1007.77
2022-10-31T06:49:35.555Z,1007.78
2022-10-31T06:50:35.539Z,1007.81
2022-10-31T06:51:35.528Z,1007.83
2022-10-31T06:52:35.511Z,1007.88
2022-10-31T06:53:35.545Z,1007.91
2022-10-31T06:54:35.482Z,1007.92
2022-10-31T06:55:35.468Z,1007.93
2022-10-31T06:56:35.446Z,1007.95
2022-10-31T06:57:35.430Z,1007.95
2022-10-31T06:58:35.416Z,1007.92
2022-10-31T06:59:35.432Z,1007.87
2022-10-31T07:00:35.387Z,1007.84
2022-10-31T07:01:35.516Z,1007.83
2022-10-31T07:02:35.418Z,1007.75
2022-10-31T07:03:35.340Z,1007.80
2022-10-31T07:04:35.384Z,1007.85
2022-10-31T07:05:35.309Z,1007.90
2022-10-31T07:06:35.297Z,1007.93
2022-10-31T07:07:35.282Z,1007.95
2022-10-31T07:08:35.278Z,1007.94
2022-10-31T07:09:35.252Z,1007.90
2022-10-31T07:10:39.110Z,1007.94
2022-10-31T07:11:35.219Z,1007.90
2022-10-31T07:12:35.213Z,1007.90
2022-10-31T07:13:35.190Z,1007.87
2022-10-31T07:14:35.176Z,1007.89
2022-10-31T07:15:35.185Z,1007.85
2022-10-31T07:16:35.146Z,1007.85
2022-10-31T07:17:35.130Z,1007.86
2022-10-31T07:18:35.118Z,1007.86
2022-10-31T07:19:35.103Z,1007.89
2022-10-31T07:20:35.129Z,1007.92
2022-10-31T07:21:35.072Z,1007.90
2022-10-31T07:22:35.066Z,1007.87
2022-10-31T07:23:35.042Z,1007.87
2022-10-31T07:24:35.036Z,1007.82
2022-10-31T07:25:35.040Z,1007.88
2022-10-31T07:26:35.064Z,1007.89
2022-10-31T07:27:36.617Z,1007.90
2022-10-31T07:28:34.973Z,1007.86
2022-10-31T07:29:34.954Z,1007.90
2022-10-31T07:30:34.946Z,1007.89
2022-10-31T07:31:34.926Z,1007.93
2022-10-31T07:32:34.948Z,1007.91
2022-10-31T07:33:34.905Z,1007.93
2022-10-31T07:34:34.881Z,1007.92
2022-10-31T07:35:34.871Z,1007.96
2022-10-31T07:36:34.853Z,1007.96
2022-10-31T07:37:34.884Z,1007.95
2022-10-31T07:38:34.825Z,1007.94
2022-10-31T07:39:34.808Z,1007.95
2022-10-31T07:40:34.801Z,1007.98
2022-10-31T07:41:34.781Z,1007.96
2022-10-31T07:42:34.765Z,1007.96
2022-10-31T07:43:34.756Z,1007.94
2022-10-31T07:44:34.737Z,1007.98
2022-10-31T07:45:34.727Z,1007.99
2022-10-31T07:46:34.720Z,1007.99
2022-10-31T07:47:34.691Z,1007.96
2022-10-31T07:48:34.682Z,1007.92
2022-10-31T07:49:34.661Z,1007.93
2022-10-31T07:50:34.664Z,1007.98
2022-10-31T07:51:34.637Z,1007.98
2022-10-31T07:52:34.624Z,1008.02
2022-10-31T07:53:34.664Z,1008.05
2022-10-31T07:54:34.591Z,1008.02
2022-10-31T07:55:34.582Z,1008.04
2022-10-31T07:56:34.566Z,1008.02
2022-10-31T07:57:34.959Z,1008.01
2022-10-31T07:58:34.548Z,1008.02
2022-10-31T07:59:34.545Z,1008.03
2022-10-31T08:00:34.558Z,1008.07
2022-10-31T08:01:34.510Z,1008.02
2022-10-31T08:02:34.476Z,1008.08
2022-10-31T08:03:34.491Z,1008.04
2022-10-31T08:04:34.477Z,1008.04
2022-10-31T08:05:34.446Z,1007.96
2022-10-31T08:06:34.419Z,1007.99
2022-10-31T08:08:37.488Z,1007.93
2022-10-31T08:09:34.380Z,1007.88
2022-10-31T08:10:34.394Z,1007.91
2022-10-31T08:11:34.343Z,1007.86
2022-10-31T08:12:34.336Z,1007.90
2022-10-31T08:13:34.336Z,1007.88
2022-10-31T08:14:34.374Z,1007.88
2022-10-31T08:15:34.291Z,1007.87
2022-10-31T08:16:34.308Z,1007.87
2022-10-31T08:17:34.263Z,1007.86
2022-10-31T08:18:34.248Z,1007.84
2022-10-31T08:19:34.281Z,1007.85
2022-10-31T08:20:34.236Z,1007.80
2022-10-31T08:21:34.210Z,1007.81
2022-10-31T08:22:34.192Z,1007.82
2022-10-31T08:23:34.177Z,1007.82
2022-10-31T08:24:34.217Z,1007.81
2022-10-31T08:25:38.238Z,1007.78
2022-10-31T08:26:34.170Z,1007.83
2022-10-31T08:27:34.119Z,1007.80
2022-10-31T08:28:34.118Z,1007.79
2022-10-31T08:29:34.096Z,1007.75
2022-10-31T08:30:34.076Z,1007.74
2022-10-31T08:31:37.577Z,1007.76
2022-10-31T08:32:34.102Z,1007.75
2022-10-31T08:33:34.036Z,1007.71
2022-10-31T08:34:34.024Z,1007.74
2022-10-31T08:35:34.009Z,1007.73
2022-10-31T08:36:33.996Z,1007.74
2022-10-31T08:37:33.981Z,1007.71
2022-10-31T08:38:33.971Z,1007.73
2022-10-31T08:39:33.949Z,1007.70
2022-10-31T08:40:33.976Z,1007.73
2022-10-31T08:41:33.927Z,1007.73
2022-10-31T08:42:33.955Z,1007.73
2022-10-31T08:43:33.904Z,1007.72
2022-10-31T08:44:33.886Z,1007.68
2022-10-31T08:45:33.870Z,1007.67
2022-10-31T08:46:33.856Z,1007.69
2022-10-31T08:47:33.841Z,1007.70
2022-10-31T08:48:33.831Z,1007.70
2022-10-31T08:49:33.818Z,1007.69
2022-10-31T08:50:33.803Z,1007.67
2022-10-31T08:51:33.794Z,1007.69
2022-10-31T08:53:03.052Z,1007.64
2022-10-31T08:53:33.770Z,1007.65
2022-10-31T08:54:33.801Z,1007.64
2022-10-31T08:55:33.732Z,1007.58
2022-10-31T08:56:33.719Z,1007.60
2022-10-31T08:57:33.704Z,1007.57
2022-10-31T08:58:37.690Z,1007.55
2022-10-31T08:59:33.682Z,1007.59
2022-10-31T09:00:33.706Z,1007.55
2022-10-31T09:01:33.869Z,1007.58
2022-10-31T09:02:33.637Z,1007.53
2022-10-31T09:03:33.625Z,1007.49
2022-10-31T09:04:33.624Z,1007.46
2022-10-31T09:05:33.713Z,1007.41
2022-10-31T09:06:33.592Z,1007.37
2022-10-31T09:07:33.570Z,1007.41
2022-10-31T09:08:33.568Z,1007.41
2022-10-31T09:09:33.553Z,1007.38
2022-10-31T09:10:33.541Z,1007.37
2022-10-31T09:11:33.514Z,1007.36
2022-10-31T09:12:33.501Z,1007.34
2022-10-31T09:13:36.424Z,1007.36
2022-10-31T09:14:33.501Z,1007.36
2022-10-31T09:15:33.485Z,1007.37
2022-10-31T09:16:33.468Z,1007.31
2022-10-31T09:17:33.478Z,1007.31
2022-10-31T09:18:33.450Z,1007.25
2022-10-31T09:19:33.410Z,1007.22
2022-10-31T09:20:33.406Z,1007.20
2022-10-31T09:21:33.393Z,1007.25
2022-10-31T09:22:33.379Z,1007.28
2022-10-31T09:23:33.357Z,1007.29
2022-10-31T09:24:33.344Z,1007.28
2022-10-31T09:25:33.323Z,1007.28
2022-10-31T09:26:33.315Z,1007.33
2022-10-31T09:27:33.296Z,1007.28
2022-10-31T09:28:33.314Z,1007.33
2022-10-31T09:29:33.274Z,1007.33
2022-10-31T09:30:33.265Z,1007.32
2022-10-31T09:31:33.274Z,1007.28
2022-10-31T09:32:33.239Z,1007.29
2022-10-31T09:33:33.220Z,1007.32
2022-10-31T09:34:33.231Z,1007.30
2022-10-31T09:35:33.191Z,1007.31
2022-10-31T09:36:33.186Z,1007.28
2022-10-31T09:37:33.192Z,1007.25
2022-10-31T09:38:33.151Z,1007.23
2022-10-31T09:39:33.137Z,1007.26
2022-10-31T09:40:33.125Z,1007.30
2022-10-31T09:41:33.150Z,1007.30
2022-10-31T09:42:33.107Z,1007.29
2022-10-31T09:43:33.087Z,1007.30
2022-10-31T09:44:33.074Z,1007.29
2022-10-31T09:45:33.063Z,1007.30
2022-10-31T09:46:33.077Z,1007.26
2022-10-31T09:47:33.037Z,1007.32
2022-10-31T09:48:33.058Z,1007.27
2022-10-31T09:49:33.054Z,1007.26
2022-10-31T09:50:32.994Z,1007.29
2022-10-31T09:51:32.989Z,1007.30
2022-10-31T09:52:32.965Z,1007.34
2022-10-31T09:53:32.951Z,1007.32
2022-10-31T09:54:33.003Z,1007.31
2022-10-31T09:55:32.926Z,1007.35
2022-10-31T09:56:32.913Z,1007.37
2022-10-31T09:57:32.898Z,1007.41
2022-10-31T09:58:34.194Z,1007.40
2022-10-31T09:59:32.873Z,1007.42
2022-10-31T10:00:32.926Z,1007.49
2022-10-31T10:01:32.955Z,1007.43
2022-10-31T10:02:32.837Z,1007.45
2022-10-31T10:03:32.821Z,1007.45
2022-10-31T10:04:32.808Z,1007.47
2022-10-31T10:05:32.801Z,1007.45
2022-10-31T10:06:32.781Z,1007.43
2022-10-31T10:07:32.775Z,1007.40
2022-10-31T10:08:32.760Z,1007.45
2022-10-31T10:09:32.740Z,1007.37
2022-10-31T10:10:32.735Z,1007.46
2022-10-31T10:11:32.717Z,1007.44
2022-10-31T10:12:32.700Z,1007.47
2022-10-31T10:13:32.688Z,1007.43
2022-10-31T10:14:32.677Z,1007.40
2022-10-31T10:15:32.705Z,1007.41
2022-10-31T10:16:32.648Z,1007.39
2022-10-31T10:17:32.640Z,1007.36
2022-10-31T10:18:32.620Z,1007.34
2022-10-31T10:19:32.613Z,1007.37
2022-10-31T10:20:32.593Z,1007.35
2022-10-31T10:21:32.606Z,1007.34
2022-10-31T10:22:32.562Z,1007.32
2022-10-31T10:23:32.556Z,1007.34
2022-10-31T10:24:32.547Z,1007.32
2022-10-31T10:25:32.527Z,1007.30
2022-10-31T10:27:32.507Z,1007.31
2022-10-31T10:28:32.485Z,1007.28
2022-10-31T10:29:32.498Z,1007.25
2022-10-31T10:30:32.466Z,1007.28
2022-10-31T10:31:32.503Z,1007.25
2022-10-31T10:32:32.488Z,1007.25
2022-10-31T10:33:32.422Z,1007.26
2022-10-31T10:34:32.413Z,1007.24
2022-10-31T10:35:32.398Z,1007.20
2022-10-31T10:36:32.386Z,1007.21
2022-10-31T10:37:32.411Z,1007.20
2022-10-31T10:38:32.352Z,1007.21
2022-10-31T10:39:32.354Z,1007.20
2022-10-31T10:40:32.328Z,1007.16
2022-10-31T10:41:34.445Z,1007.21
2022-10-31T10:42:32.311Z,1007.15
2022-10-31T10:43:32.350Z,1007.19
2022-10-31T10:44:32.278Z,1007.14
2022-10-31T10:45:32.267Z,1007.18
2022-10-31T10:46:32.247Z,1007.13
2022-10-31T10:47:32.239Z,1007.11
2022-10-31T10:48:32.256Z,1007.11
2022-10-31T10:49:32.217Z,1007.18
2022-10-31T10:50:32.200Z,1007.09
2022-10-31T10:51:54.415Z,1007.09
2022-10-31T10:52:42.204Z,1007.08
2022-10-31T10:53:32.211Z,1007.08
2022-10-31T10:54:32.144Z,1007.05
2022-10-31T10:55:32.150Z,1007.02
2022-10-31T10:56:32.122Z,1007.02
2022-10-31T10:57:32.111Z,1007.08
2022-10-31T10:58:32.095Z,1007.05
2022-10-31T10:59:32.129Z,1007.05
2022-10-31T11:00:32.132Z,1007.05
2022-10-31T11:01:32.054Z,1007.08
2022-10-31T11:02:32.066Z,1007.06
2022-10-31T11:03:32.030Z,1007.04
2022-10-31T11:04:32.017Z,1007.11
2022-10-31T11:05:32.019Z,1007.07
2022-10-31T11:06:31.987Z,1007.08
2022-10-31T11:07:31.980Z,1007.02
2022-10-31T11:08:31.969Z,1007.01
2022-10-31T11:09:31.952Z,1006.99
2022-10-31T11:10:31.947Z,1006.98
2022-10-31T11:11:31.972Z,1006.95
2022-10-31T11:12:31.929Z,1006.90
2022-10-31T11:13:31.902Z,1006.93
2022-10-31T11:14:31.887Z,1006.88
2022-10-31T11:15:31.882Z,1006.88
2022-10-31T11:16:35.560Z,1006.82
2022-10-31T11:17:31.851Z,1006.83
2022-10-31T11:18:31.859Z,1006.81
2022-10-31T11:19:31.833Z,1006.78
2022-10-31T11:20:31.819Z,1006.72
2022-10-31T11:21:31.809Z,1006.72
2022-10-31T11:22:31.805Z,1006.64
2022-10-31T11:23:31.779Z,1006.59
2022-10-31T11:24:31.771Z,1006.62
2022-10-31T11:25:31.757Z,1006.60
2022-10-31T11:26:31.740Z,1006.59
2022-10-31T11:27:31.735Z,1006.53
2022-10-31T11:28:31.709Z,1006.54
2022-10-31T11:29:31.703Z,1006.53
2022-10-31T11:30:31.688Z,1006.51
2022-10-31T11:31:31.717Z,1006.52
2022-10-31T11:32:31.712Z,1006.48
2022-10-31T11:33:31.655Z,1006.49
2022-10-31T11:34:31.661Z,1006.47
2022-10-31T11:35:32.104Z,1006.46
2022-10-31T11:36:31.658Z,1006.51
2022-10-31T11:37:31.638Z,1006.49
2022-10-31T11:38:31.617Z,1006.49
2022-10-31T11:39:31.602Z,1006.47
2022-10-31T11:40:31.579Z,1006.45
2022-10-31T11:41:31.561Z,1006.50
2022-10-31T11:42:31.584Z,1006.45
2022-10-31T11:43:31.544Z,1006.43
2022-10-31T11:44:31.535Z,1006.41
2022-10-31T11:45:31.517Z,1006.44
2022-10-31T11:46:31.506Z,1006.37
2022-10-31T11:47:31.504Z,1006.35
2022-10-31T11:48:31.508Z,1006.36
2022-10-31T11:49:31.462Z,1006.31
2022-10-31T11:50:31.450Z,1006.30
2022-10-31T11:51:31.454Z,1006.29
2022-10-31T11:52:31.428Z,1006.30
2022-10-31T11:53:31.460Z,1006.31
2022-10-31T11:54:31.403Z,1006.26
2022-10-31T11:55:31.394Z,1006.28
2022-10-31T11:56:31.377Z,1006.30
2022-10-31T11:57:31.390Z,1006.29
2022-10-31T11:58:31.380Z,1006.26
2022-10-31T11:59:31.344Z,1006.23
2022-10-31T12:00:31.405Z,1006.21
2022-10-31T12:01:31.428Z,1006.21
2022-10-31T12:02:31.356Z,1006.18
2022-10-31T12:03:31.323Z,1006.22
2022-10-31T12:04:31.284Z,1006.23
2022-10-31T12:05:31.338Z,1006.18
2022-10-31T12:06:31.331Z,1006.17
2022-10-31T12:07:31.252Z,1006.14